<?xml version="1.0" encoding="UTF-8" standalone="no" ?>
<gpx xmlns="http://www.topografix.com/GPX/1/1" xmlns:xsi="http://www.w3.org/2001/XMLSchema-instance" xsi:schemaLocation="http://www.topografix.com/GPX/1/1 http://www.topografix.com/GPX/1/1/gpx.xsd" version="1.1" creator="VisuGPX - https://www.visugpx.com">
  <metadata>
    <name>Etauliers Octobre Rose 2021</name>
  </metadata>
  <trk>
    <name><![CDATA[Etauliers Octobre Rose 2021_1]]></name>
    <extensions>
      <line xmlns="http://www.topografix.com/GPX/gpx_style/0/2">
        <color>0000FF</color>
        <width>4</width>
      </line>
    </extensions>
    <trkseg>
      <trkpt lat="45.2242" lon="-0.5729">
        <ele>7</ele>
      </trkpt>
      <trkpt lat="45.2242" lon="-0.5729">
        <ele>7</ele>
      </trkpt>
      <trkpt lat="45.2242" lon="-0.5729">
        <ele>7</ele>
      </trkpt>
      <trkpt lat="45.22398" lon="-0.57291">
        <ele>54.44</ele>
        <time>2021-05-24T10:23:09.000Z</time>
      </trkpt>
      <trkpt lat="45.22396" lon="-0.57278">
        <ele>54.24</ele>
        <time>2021-05-24T10:23:38.000Z</time>
      </trkpt>
      <trkpt lat="45.22397" lon="-0.57261">
        <ele>52</ele>
        <time>2021-05-24T10:23:42.000Z</time>
      </trkpt>
      <trkpt lat="45.22395" lon="-0.57247">
        <ele>50.42</ele>
        <time>2021-05-24T10:23:46.000Z</time>
      </trkpt>
      <trkpt lat="45.22397" lon="-0.57233">
        <ele>50.12</ele>
        <time>2021-05-24T10:23:50.000Z</time>
      </trkpt>
      <trkpt lat="45.22396" lon="-0.57218">
        <ele>50.33</ele>
        <time>2021-05-24T10:23:55.000Z</time>
      </trkpt>
      <trkpt lat="45.22395" lon="-0.57202">
        <ele>52.94</ele>
        <time>2021-05-24T10:24:44.000Z</time>
      </trkpt>
      <trkpt lat="45.22399" lon="-0.57188">
        <ele>52.94</ele>
        <time>2021-05-24T10:24:48.000Z</time>
      </trkpt>
      <trkpt lat="45.22401" lon="-0.57174">
        <ele>52.83</ele>
        <time>2021-05-24T10:24:52.000Z</time>
      </trkpt>
      <trkpt lat="45.22403" lon="-0.57158">
        <ele>53.01</ele>
        <time>2021-05-24T10:24:56.000Z</time>
      </trkpt>
      <trkpt lat="45.22403" lon="-0.57145">
        <ele>53.06</ele>
        <time>2021-05-24T10:24:59.000Z</time>
      </trkpt>
      <trkpt lat="45.22404" lon="-0.5713">
        <ele>52.83</ele>
        <time>2021-05-24T10:25:02.000Z</time>
      </trkpt>
      <trkpt lat="45.22406" lon="-0.57117">
        <ele>54.04</ele>
        <time>2021-05-24T10:25:05.000Z</time>
      </trkpt>
      <trkpt lat="45.22407" lon="-0.571">
        <ele>54.02</ele>
        <time>2021-05-24T10:25:08.000Z</time>
      </trkpt>
      <trkpt lat="45.22407" lon="-0.57083">
        <ele>54.58</ele>
        <time>2021-05-24T10:25:11.000Z</time>
      </trkpt>
      <trkpt lat="45.22408" lon="-0.57068">
        <ele>54.7</ele>
        <time>2021-05-24T10:25:14.000Z</time>
      </trkpt>
      <trkpt lat="45.22408" lon="-0.57054">
        <ele>55.86</ele>
        <time>2021-05-24T10:25:17.000Z</time>
      </trkpt>
      <trkpt lat="45.22408" lon="-0.57039">
        <ele>56.43</ele>
        <time>2021-05-24T10:25:20.000Z</time>
      </trkpt>
      <trkpt lat="45.2241" lon="-0.57025">
        <ele>52.41</ele>
        <time>2021-05-24T10:25:35.000Z</time>
      </trkpt>
      <trkpt lat="45.2241" lon="-0.57009">
        <ele>52.42</ele>
        <time>2021-05-24T10:25:39.000Z</time>
      </trkpt>
      <trkpt lat="45.22413" lon="-0.56996">
        <ele>55.73</ele>
        <time>2021-05-24T10:26:22.000Z</time>
      </trkpt>
      <trkpt lat="45.22419" lon="-0.56986">
        <ele>54.02</ele>
        <time>2021-05-24T10:26:44.000Z</time>
      </trkpt>
      <trkpt lat="45.22428" lon="-0.56976">
        <ele>54.07</ele>
        <time>2021-05-24T10:26:51.000Z</time>
      </trkpt>
      <trkpt lat="45.22436" lon="-0.56966">
        <ele>54</ele>
        <time>2021-05-24T10:26:55.000Z</time>
      </trkpt>
      <trkpt lat="45.22445" lon="-0.56964">
        <ele>57.54</ele>
        <time>2021-05-24T10:26:59.000Z</time>
      </trkpt>
      <trkpt lat="45.22454" lon="-0.56961">
        <ele>55.83</ele>
        <time>2021-05-24T10:27:03.000Z</time>
      </trkpt>
      <trkpt lat="45.22456" lon="-0.56775">
        <ele>6.4</ele>
      </trkpt>
      <trkpt lat="45.22465" lon="-0.56751">
        <ele>7.4</ele>
      </trkpt>
      <trkpt lat="45.22475" lon="-0.56749">
        <ele>8</ele>
      </trkpt>
      <trkpt lat="45.22481" lon="-0.56743">
        <ele>8.1</ele>
      </trkpt>
      <trkpt lat="45.22492" lon="-0.56746">
        <ele>8.1</ele>
      </trkpt>
      <trkpt lat="45.225" lon="-0.56736">
        <ele>8.5</ele>
      </trkpt>
      <trkpt lat="45.22516" lon="-0.56736">
        <ele>8.5</ele>
      </trkpt>
      <trkpt lat="45.22531" lon="-0.56729">
        <ele>8.8</ele>
      </trkpt>
      <trkpt lat="45.22556" lon="-0.56715">
        <ele>9.3</ele>
      </trkpt>
      <trkpt lat="45.22565" lon="-0.56712">
        <ele>9.3</ele>
      </trkpt>
      <trkpt lat="45.22565" lon="-0.56696">
        <ele>9.7</ele>
      </trkpt>
      <trkpt lat="45.22566" lon="-0.56685">
        <ele>9.8</ele>
      </trkpt>
      <trkpt lat="45.2258" lon="-0.56662">
        <ele>10</ele>
      </trkpt>
      <trkpt lat="45.22565" lon="-0.56605">
        <ele>10.1</ele>
      </trkpt>
      <trkpt lat="45.22626" lon="-0.56573">
        <ele>11.4</ele>
      </trkpt>
      <trkpt lat="45.22638" lon="-0.56567">
        <ele>11.6</ele>
      </trkpt>
      <trkpt lat="45.22652" lon="-0.56611">
        <ele>11</ele>
      </trkpt>
      <trkpt lat="45.22651" lon="-0.56626">
        <ele>11</ele>
      </trkpt>
      <trkpt lat="45.22665" lon="-0.56653">
        <ele>11</ele>
      </trkpt>
      <trkpt lat="45.22668" lon="-0.56672">
        <ele>10.9</ele>
      </trkpt>
      <trkpt lat="45.2267" lon="-0.56693">
        <ele>10.2</ele>
      </trkpt>
      <trkpt lat="45.22671" lon="-0.56748">
        <ele>10.2</ele>
      </trkpt>
      <trkpt lat="45.22672" lon="-0.5678">
        <ele>10.2</ele>
      </trkpt>
      <trkpt lat="45.22682" lon="-0.56844">
        <ele>10.4</ele>
      </trkpt>
      <trkpt lat="45.22691" lon="-0.56855">
        <ele>10.2</ele>
      </trkpt>
      <trkpt lat="45.22761" lon="-0.56827">
        <ele>12</ele>
      </trkpt>
      <trkpt lat="45.22764" lon="-0.56818">
        <ele>12</ele>
      </trkpt>
      <trkpt lat="45.22769" lon="-0.56779">
        <ele>13</ele>
      </trkpt>
      <trkpt lat="45.22782" lon="-0.56779">
        <ele>13</ele>
      </trkpt>
      <trkpt lat="45.22813" lon="-0.56757">
        <ele>13.8</ele>
      </trkpt>
      <trkpt lat="45.22822" lon="-0.56685">
        <ele>14.2</ele>
      </trkpt>
      <trkpt lat="45.22849" lon="-0.5667">
        <ele>15</ele>
      </trkpt>
      <trkpt lat="45.22851" lon="-0.56644">
        <ele>15</ele>
      </trkpt>
      <trkpt lat="45.22854" lon="-0.56638">
        <ele>15.1</ele>
      </trkpt>
      <trkpt lat="45.22875" lon="-0.56628">
        <ele>15.2</ele>
      </trkpt>
      <trkpt lat="45.22898" lon="-0.56618">
        <ele>15</ele>
      </trkpt>
      <trkpt lat="45.22917" lon="-0.5664">
        <ele>15</ele>
      </trkpt>
      <trkpt lat="45.22924" lon="-0.5665">
        <ele>14.9</ele>
      </trkpt>
      <trkpt lat="45.22932" lon="-0.56684">
        <ele>14.2</ele>
      </trkpt>
      <trkpt lat="45.22934" lon="-0.56704">
        <ele>14</ele>
      </trkpt>
      <trkpt lat="45.22945" lon="-0.56731">
        <ele>13.7</ele>
      </trkpt>
      <trkpt lat="45.22951" lon="-0.56742">
        <ele>13</ele>
      </trkpt>
      <trkpt lat="45.2296" lon="-0.56756">
        <ele>12.5</ele>
      </trkpt>
      <trkpt lat="45.22967" lon="-0.56768">
        <ele>12.2</ele>
      </trkpt>
      <trkpt lat="45.22974" lon="-0.56778">
        <ele>12</ele>
      </trkpt>
      <trkpt lat="45.22986" lon="-0.56794">
        <ele>12.3</ele>
      </trkpt>
      <trkpt lat="45.23011" lon="-0.56818">
        <ele>11.6</ele>
      </trkpt>
      <trkpt lat="45.23026" lon="-0.56809">
        <ele>11.1</ele>
      </trkpt>
      <trkpt lat="45.23049" lon="-0.56778">
        <ele>12</ele>
      </trkpt>
      <trkpt lat="45.23062" lon="-0.56768">
        <ele>11.5</ele>
      </trkpt>
      <trkpt lat="45.23056" lon="-0.56755">
        <ele>11.2</ele>
      </trkpt>
      <trkpt lat="45.23053" lon="-0.56709">
        <ele>11.5</ele>
      </trkpt>
      <trkpt lat="45.23059" lon="-0.56702">
        <ele>11.6</ele>
      </trkpt>
      <trkpt lat="45.23076" lon="-0.56692">
        <ele>11.3</ele>
      </trkpt>
      <trkpt lat="45.23087" lon="-0.56701">
        <ele>11</ele>
      </trkpt>
      <trkpt lat="45.23119" lon="-0.56679">
        <ele>11.4</ele>
      </trkpt>
      <trkpt lat="45.23121" lon="-0.5664">
        <ele>11.6</ele>
      </trkpt>
      <trkpt lat="45.23129" lon="-0.5663">
        <ele>11.6</ele>
      </trkpt>
      <trkpt lat="45.23137" lon="-0.56628">
        <ele>11.4</ele>
      </trkpt>
      <trkpt lat="45.23204" lon="-0.56642">
        <ele>11.9</ele>
      </trkpt>
      <trkpt lat="45.2321" lon="-0.56648">
        <ele>11.9</ele>
      </trkpt>
      <trkpt lat="45.23218" lon="-0.56667">
        <ele>11.8</ele>
      </trkpt>
      <trkpt lat="45.23314" lon="-0.56603">
        <ele>11</ele>
      </trkpt>
      <trkpt lat="45.23301" lon="-0.56554">
        <ele>12</ele>
      </trkpt>
      <trkpt lat="45.2329" lon="-0.56525">
        <ele>12</ele>
      </trkpt>
      <trkpt lat="45.23282" lon="-0.56488">
        <ele>12</ele>
      </trkpt>
      <trkpt lat="45.23278" lon="-0.5647">
        <ele>12</ele>
      </trkpt>
      <trkpt lat="45.23276" lon="-0.56453">
        <ele>12</ele>
      </trkpt>
      <trkpt lat="45.23277" lon="-0.56433">
        <ele>12</ele>
      </trkpt>
      <trkpt lat="45.23266" lon="-0.56404">
        <ele>12</ele>
      </trkpt>
      <trkpt lat="45.23246" lon="-0.56353">
        <ele>13</ele>
      </trkpt>
      <trkpt lat="45.23272" lon="-0.56326">
        <ele>12.4</ele>
      </trkpt>
      <trkpt lat="45.2323" lon="-0.56247">
        <ele>13</ele>
      </trkpt>
      <trkpt lat="45.23208" lon="-0.56204">
        <ele>13.5</ele>
      </trkpt>
      <trkpt lat="45.23184" lon="-0.56142">
        <ele>14.3</ele>
      </trkpt>
      <trkpt lat="45.2316" lon="-0.56092">
        <ele>15</ele>
      </trkpt>
      <trkpt lat="45.23151" lon="-0.56081">
        <ele>15</ele>
      </trkpt>
      <trkpt lat="45.23136" lon="-0.5603">
        <ele>15.1</ele>
      </trkpt>
      <trkpt lat="45.23126" lon="-0.56008">
        <ele>15.5</ele>
      </trkpt>
      <trkpt lat="45.23034" lon="-0.55914">
        <ele>16.8</ele>
      </trkpt>
      <trkpt lat="45.23005" lon="-0.55868">
        <ele>17.8</ele>
      </trkpt>
      <trkpt lat="45.22966" lon="-0.558">
        <ele>18.3</ele>
      </trkpt>
      <trkpt lat="45.22947" lon="-0.55735">
        <ele>19.4</ele>
      </trkpt>
      <trkpt lat="45.22923" lon="-0.55653">
        <ele>19.4</ele>
      </trkpt>
      <trkpt lat="45.229" lon="-0.55544">
        <ele>19.6</ele>
      </trkpt>
      <trkpt lat="45.22903" lon="-0.55495">
        <ele>19.5</ele>
      </trkpt>
      <trkpt lat="45.22888" lon="-0.55493">
        <ele>20.1</ele>
      </trkpt>
      <trkpt lat="45.22882" lon="-0.55471">
        <ele>20.5</ele>
      </trkpt>
      <trkpt lat="45.22881" lon="-0.5544">
        <ele>20.3</ele>
      </trkpt>
      <trkpt lat="45.22879" lon="-0.55387">
        <ele>20.4</ele>
      </trkpt>
      <trkpt lat="45.22571" lon="-0.55428">
        <ele>17</ele>
      </trkpt>
      <trkpt lat="45.22569" lon="-0.55473">
        <ele>18.5</ele>
      </trkpt>
      <trkpt lat="45.22564" lon="-0.55592">
        <ele>18.3</ele>
      </trkpt>
      <trkpt lat="45.22566" lon="-0.5567">
        <ele>18.4</ele>
      </trkpt>
      <trkpt lat="45.22568" lon="-0.55722">
        <ele>18.4</ele>
      </trkpt>
      <trkpt lat="45.22556" lon="-0.55724">
        <ele>56.68</ele>
        <time>2021-05-24T09:18:35.000Z</time>
      </trkpt>
      <trkpt lat="45.22556" lon="-0.55724">
        <ele>56.68</ele>
        <time>2021-05-24T09:18:35.000Z</time>
      </trkpt>
      <trkpt lat="45.22548" lon="-0.55731">
        <ele>53.94</ele>
        <time>2021-05-24T09:18:38.000Z</time>
      </trkpt>
      <trkpt lat="45.22539" lon="-0.55736">
        <ele>53.39</ele>
        <time>2021-05-24T09:18:40.000Z</time>
      </trkpt>
      <trkpt lat="45.22525" lon="-0.55743">
        <ele>55.93</ele>
        <time>2021-05-24T09:18:43.000Z</time>
      </trkpt>
      <trkpt lat="45.22516" lon="-0.55748">
        <ele>56.68</ele>
        <time>2021-05-24T09:18:45.000Z</time>
      </trkpt>
      <trkpt lat="45.22508" lon="-0.55759">
        <ele>55.61</ele>
        <time>2021-05-24T09:18:48.000Z</time>
      </trkpt>
      <trkpt lat="45.22499" lon="-0.55768">
        <ele>55.41</ele>
        <time>2021-05-24T09:18:50.000Z</time>
      </trkpt>
      <trkpt lat="45.22491" lon="-0.55774">
        <ele>55.14</ele>
        <time>2021-05-24T09:21:04.000Z</time>
      </trkpt>
      <trkpt lat="45.22484" lon="-0.55785">
        <ele>53.94</ele>
        <time>2021-05-24T09:21:08.000Z</time>
      </trkpt>
      <trkpt lat="45.22476" lon="-0.55796">
        <ele>54.14</ele>
        <time>2021-05-24T09:21:11.000Z</time>
      </trkpt>
      <trkpt lat="45.22467" lon="-0.55806">
        <ele>53.41</ele>
        <time>2021-05-24T09:21:14.000Z</time>
      </trkpt>
      <trkpt lat="45.22456" lon="-0.55814">
        <ele>53.57</ele>
        <time>2021-05-24T09:21:17.000Z</time>
      </trkpt>
      <trkpt lat="45.22444" lon="-0.55823">
        <ele>53.03</ele>
        <time>2021-05-24T09:21:20.000Z</time>
      </trkpt>
      <trkpt lat="45.22436" lon="-0.5583">
        <ele>53.13</ele>
        <time>2021-05-24T09:21:22.000Z</time>
      </trkpt>
      <trkpt lat="45.22428" lon="-0.55836">
        <ele>53</ele>
        <time>2021-05-24T09:21:24.000Z</time>
      </trkpt>
      <trkpt lat="45.2242" lon="-0.55843">
        <ele>52.59</ele>
        <time>2021-05-24T09:21:26.000Z</time>
      </trkpt>
      <trkpt lat="45.22412" lon="-0.5585">
        <ele>52.83</ele>
        <time>2021-05-24T09:21:28.000Z</time>
      </trkpt>
      <trkpt lat="45.22404" lon="-0.55863">
        <ele>53</ele>
        <time>2021-05-24T09:21:31.000Z</time>
      </trkpt>
      <trkpt lat="45.22401" lon="-0.55881">
        <ele>53.81</ele>
        <time>2021-05-24T09:21:34.000Z</time>
      </trkpt>
      <trkpt lat="45.22398" lon="-0.55896">
        <ele>53.92</ele>
        <time>2021-05-24T09:21:37.000Z</time>
      </trkpt>
      <trkpt lat="45.22393" lon="-0.55909">
        <ele>54.54</ele>
        <time>2021-05-24T09:21:40.000Z</time>
      </trkpt>
      <trkpt lat="45.22389" lon="-0.55922">
        <ele>54.45</ele>
        <time>2021-05-24T09:21:43.000Z</time>
      </trkpt>
      <trkpt lat="45.22385" lon="-0.55936">
        <ele>54.46</ele>
        <time>2021-05-24T09:21:46.000Z</time>
      </trkpt>
      <trkpt lat="45.22383" lon="-0.5595">
        <ele>55.01</ele>
        <time>2021-05-24T09:21:49.000Z</time>
      </trkpt>
      <trkpt lat="45.22381" lon="-0.55963">
        <ele>55.43</ele>
        <time>2021-05-24T09:21:52.000Z</time>
      </trkpt>
      <trkpt lat="45.22378" lon="-0.55978">
        <ele>55.58</ele>
        <time>2021-05-24T09:21:55.000Z</time>
      </trkpt>
      <trkpt lat="45.22375" lon="-0.55993">
        <ele>55.64</ele>
        <time>2021-05-24T09:21:58.000Z</time>
      </trkpt>
      <trkpt lat="45.22371" lon="-0.56008">
        <ele>56.31</ele>
        <time>2021-05-24T09:22:01.000Z</time>
      </trkpt>
      <trkpt lat="45.22365" lon="-0.56021">
        <ele>56.41</ele>
        <time>2021-05-24T09:22:04.000Z</time>
      </trkpt>
      <trkpt lat="45.22359" lon="-0.56033">
        <ele>55.63</ele>
        <time>2021-05-24T09:22:07.000Z</time>
      </trkpt>
      <trkpt lat="45.22353" lon="-0.56043">
        <ele>55.47</ele>
        <time>2021-05-24T09:22:10.000Z</time>
      </trkpt>
      <trkpt lat="45.22347" lon="-0.56053">
        <ele>54.03</ele>
        <time>2021-05-24T09:22:13.000Z</time>
      </trkpt>
      <trkpt lat="45.2234" lon="-0.56062">
        <ele>54.17</ele>
        <time>2021-05-24T09:22:16.000Z</time>
      </trkpt>
      <trkpt lat="45.22334" lon="-0.56072">
        <ele>53.25</ele>
        <time>2021-05-24T09:22:19.000Z</time>
      </trkpt>
      <trkpt lat="45.22327" lon="-0.56082">
        <ele>53.32</ele>
        <time>2021-05-24T09:22:22.000Z</time>
      </trkpt>
      <trkpt lat="45.22319" lon="-0.56092">
        <ele>53.01</ele>
        <time>2021-05-24T09:22:25.000Z</time>
      </trkpt>
      <trkpt lat="45.22312" lon="-0.56102">
        <ele>52.46</ele>
        <time>2021-05-24T09:22:28.000Z</time>
      </trkpt>
      <trkpt lat="45.22304" lon="-0.56112">
        <ele>52.06</ele>
        <time>2021-05-24T09:22:31.000Z</time>
      </trkpt>
      <trkpt lat="45.22296" lon="-0.56122">
        <ele>51.57</ele>
        <time>2021-05-24T09:22:34.000Z</time>
      </trkpt>
      <trkpt lat="45.22288" lon="-0.56133">
        <ele>50.27</ele>
        <time>2021-05-24T09:22:37.000Z</time>
      </trkpt>
      <trkpt lat="45.22279" lon="-0.56144">
        <ele>50.22</ele>
        <time>2021-05-24T09:22:40.000Z</time>
      </trkpt>
      <trkpt lat="45.22271" lon="-0.56154">
        <ele>49.72</ele>
        <time>2021-05-24T09:22:43.000Z</time>
      </trkpt>
      <trkpt lat="45.22261" lon="-0.56159">
        <ele>48.23</ele>
        <time>2021-05-24T09:23:26.000Z</time>
      </trkpt>
      <trkpt lat="45.22252" lon="-0.56166">
        <ele>46.9</ele>
        <time>2021-05-24T09:23:30.000Z</time>
      </trkpt>
      <trkpt lat="45.22242" lon="-0.56167">
        <ele>46.67</ele>
        <time>2021-05-24T09:23:33.000Z</time>
      </trkpt>
      <trkpt lat="45.22232" lon="-0.5617">
        <ele>47.34</ele>
        <time>2021-05-24T09:23:36.000Z</time>
      </trkpt>
      <trkpt lat="45.22221" lon="-0.56175">
        <ele>47.89</ele>
        <time>2021-05-24T09:23:39.000Z</time>
      </trkpt>
      <trkpt lat="45.22213" lon="-0.56184">
        <ele>48.97</ele>
        <time>2021-05-24T09:23:42.000Z</time>
      </trkpt>
      <trkpt lat="45.22205" lon="-0.56194">
        <ele>49.19</ele>
        <time>2021-05-24T09:23:45.000Z</time>
      </trkpt>
      <trkpt lat="45.22197" lon="-0.56205">
        <ele>49.57</ele>
        <time>2021-05-24T09:23:48.000Z</time>
      </trkpt>
      <trkpt lat="45.2219" lon="-0.56217">
        <ele>49.31</ele>
        <time>2021-05-24T09:23:51.000Z</time>
      </trkpt>
      <trkpt lat="45.22183" lon="-0.56229">
        <ele>49.12</ele>
        <time>2021-05-24T09:23:54.000Z</time>
      </trkpt>
      <trkpt lat="45.22176" lon="-0.56241">
        <ele>49.52</ele>
        <time>2021-05-24T09:23:57.000Z</time>
      </trkpt>
      <trkpt lat="45.22168" lon="-0.56253">
        <ele>49.32</ele>
        <time>2021-05-24T09:24:00.000Z</time>
      </trkpt>
      <trkpt lat="45.2216" lon="-0.56266">
        <ele>49.38</ele>
        <time>2021-05-24T09:24:03.000Z</time>
      </trkpt>
      <trkpt lat="45.22152" lon="-0.56278">
        <ele>49.27</ele>
        <time>2021-05-24T09:24:06.000Z</time>
      </trkpt>
      <trkpt lat="45.22144" lon="-0.56292">
        <ele>49.27</ele>
        <time>2021-05-24T09:24:09.000Z</time>
      </trkpt>
      <trkpt lat="45.22137" lon="-0.56304">
        <ele>49.11</ele>
        <time>2021-05-24T09:24:12.000Z</time>
      </trkpt>
      <trkpt lat="45.22129" lon="-0.56318">
        <ele>49.28</ele>
        <time>2021-05-24T09:24:15.000Z</time>
      </trkpt>
      <trkpt lat="45.22109" lon="-0.56341">
        <ele>8.7</ele>
      </trkpt>
      <trkpt lat="45.22103" lon="-0.56345">
        <ele>8.4</ele>
      </trkpt>
      <trkpt lat="45.22097" lon="-0.56347">
        <ele>8.3</ele>
      </trkpt>
      <trkpt lat="45.22076" lon="-0.56338">
        <ele>8</ele>
      </trkpt>
      <trkpt lat="45.22068" lon="-0.56329">
        <ele>53.48</ele>
        <time>2021-05-24T09:27:23.000Z</time>
      </trkpt>
      <trkpt lat="45.22058" lon="-0.56322">
        <ele>53.51</ele>
        <time>2021-05-24T09:27:26.000Z</time>
      </trkpt>
      <trkpt lat="45.22048" lon="-0.56313">
        <ele>53.02</ele>
        <time>2021-05-24T09:27:30.000Z</time>
      </trkpt>
      <trkpt lat="45.22039" lon="-0.56306">
        <ele>54.23</ele>
        <time>2021-05-24T09:27:33.000Z</time>
      </trkpt>
      <trkpt lat="45.2203" lon="-0.56298">
        <ele>55.02</ele>
        <time>2021-05-24T09:27:36.000Z</time>
      </trkpt>
      <trkpt lat="45.22022" lon="-0.56292">
        <ele>55.9</ele>
        <time>2021-05-24T09:27:39.000Z</time>
      </trkpt>
      <trkpt lat="45.22012" lon="-0.56283">
        <ele>56.03</ele>
        <time>2021-05-24T09:27:43.000Z</time>
      </trkpt>
      <trkpt lat="45.22005" lon="-0.56274">
        <ele>56.21</ele>
        <time>2021-05-24T09:27:47.000Z</time>
      </trkpt>
      <trkpt lat="45.21997" lon="-0.56265">
        <ele>56.31</ele>
        <time>2021-05-24T09:27:52.000Z</time>
      </trkpt>
      <trkpt lat="45.21989" lon="-0.56257">
        <ele>56.4</ele>
        <time>2021-05-24T09:27:57.000Z</time>
      </trkpt>
      <trkpt lat="45.21981" lon="-0.56251">
        <ele>57.05</ele>
        <time>2021-05-24T09:28:28.000Z</time>
      </trkpt>
      <trkpt lat="45.21974" lon="-0.56242">
        <ele>55.42</ele>
        <time>2021-05-24T09:28:35.000Z</time>
      </trkpt>
      <trkpt lat="45.21963" lon="-0.56232">
        <ele>55.69</ele>
        <time>2021-05-24T09:28:41.000Z</time>
      </trkpt>
      <trkpt lat="45.21955" lon="-0.5624">
        <ele>54.88</ele>
        <time>2021-05-24T09:29:04.000Z</time>
      </trkpt>
      <trkpt lat="45.21949" lon="-0.56252">
        <ele>54.47</ele>
        <time>2021-05-24T09:29:08.000Z</time>
      </trkpt>
      <trkpt lat="45.21943" lon="-0.56262">
        <ele>54.11</ele>
        <time>2021-05-24T09:29:11.000Z</time>
      </trkpt>
      <trkpt lat="45.21938" lon="-0.56273">
        <ele>53.48</ele>
        <time>2021-05-24T09:29:14.000Z</time>
      </trkpt>
      <trkpt lat="45.21932" lon="-0.56285">
        <ele>52.73</ele>
        <time>2021-05-24T09:29:17.000Z</time>
      </trkpt>
      <trkpt lat="45.21929" lon="-0.563">
        <ele>53.31</ele>
        <time>2021-05-24T09:29:20.000Z</time>
      </trkpt>
      <trkpt lat="45.21929" lon="-0.56315">
        <ele>53.4</ele>
        <time>2021-05-24T09:29:23.000Z</time>
      </trkpt>
      <trkpt lat="45.2193" lon="-0.5633">
        <ele>53.95</ele>
        <time>2021-05-24T09:29:26.000Z</time>
      </trkpt>
      <trkpt lat="45.2193" lon="-0.56345">
        <ele>54.21</ele>
        <time>2021-05-24T09:29:29.000Z</time>
      </trkpt>
      <trkpt lat="45.21931" lon="-0.56358">
        <ele>53.94</ele>
        <time>2021-05-24T09:29:32.000Z</time>
      </trkpt>
      <trkpt lat="45.21933" lon="-0.56373">
        <ele>54.86</ele>
        <time>2021-05-24T09:29:58.000Z</time>
      </trkpt>
      <trkpt lat="45.21934" lon="-0.56389">
        <ele>56.69</ele>
        <time>2021-05-24T09:30:02.000Z</time>
      </trkpt>
      <trkpt lat="45.21933" lon="-0.56404">
        <ele>58.88</ele>
        <time>2021-05-24T09:30:05.000Z</time>
      </trkpt>
      <trkpt lat="45.21934" lon="-0.5642">
        <ele>59.12</ele>
        <time>2021-05-24T09:30:09.000Z</time>
      </trkpt>
      <trkpt lat="45.21935" lon="-0.56437">
        <ele>57.83</ele>
        <time>2021-05-24T09:30:13.000Z</time>
      </trkpt>
      <trkpt lat="45.21936" lon="-0.56451">
        <ele>57.49</ele>
        <time>2021-05-24T09:30:16.000Z</time>
      </trkpt>
      <trkpt lat="45.21936" lon="-0.56467">
        <ele>57.3</ele>
        <time>2021-05-24T09:30:19.000Z</time>
      </trkpt>
      <trkpt lat="45.21938" lon="-0.56484">
        <ele>58.14</ele>
        <time>2021-05-24T09:30:22.000Z</time>
      </trkpt>
      <trkpt lat="45.21939" lon="-0.56499">
        <ele>57.97</ele>
        <time>2021-05-24T09:30:25.000Z</time>
      </trkpt>
      <trkpt lat="45.2194" lon="-0.56513">
        <ele>56.9</ele>
        <time>2021-05-24T09:30:28.000Z</time>
      </trkpt>
      <trkpt lat="45.2194" lon="-0.56529">
        <ele>56.65</ele>
        <time>2021-05-24T09:30:31.000Z</time>
      </trkpt>
      <trkpt lat="45.21942" lon="-0.56542">
        <ele>56.74</ele>
        <time>2021-05-24T09:30:34.000Z</time>
      </trkpt>
      <trkpt lat="45.21946" lon="-0.56556">
        <ele>56.9</ele>
        <time>2021-05-24T09:30:37.000Z</time>
      </trkpt>
      <trkpt lat="45.2195" lon="-0.5657">
        <ele>57.16</ele>
        <time>2021-05-24T09:30:40.000Z</time>
      </trkpt>
      <trkpt lat="45.21954" lon="-0.56584">
        <ele>57.71</ele>
        <time>2021-05-24T09:30:43.000Z</time>
      </trkpt>
      <trkpt lat="45.21957" lon="-0.56596">
        <ele>58.42</ele>
        <time>2021-05-24T09:30:46.000Z</time>
      </trkpt>
      <trkpt lat="45.2196" lon="-0.5661">
        <ele>58.5</ele>
        <time>2021-05-24T09:30:49.000Z</time>
      </trkpt>
      <trkpt lat="45.21963" lon="-0.56622">
        <ele>58.41</ele>
        <time>2021-05-24T09:30:52.000Z</time>
      </trkpt>
      <trkpt lat="45.21967" lon="-0.56634">
        <ele>58.84</ele>
        <time>2021-05-24T09:30:55.000Z</time>
      </trkpt>
      <trkpt lat="45.2197" lon="-0.56649">
        <ele>58.8</ele>
        <time>2021-05-24T09:30:59.000Z</time>
      </trkpt>
      <trkpt lat="45.21975" lon="-0.56662">
        <ele>57.3</ele>
        <time>2021-05-24T09:31:18.000Z</time>
      </trkpt>
      <trkpt lat="45.21991" lon="-0.56687">
        <ele>8</ele>
      </trkpt>
      <trkpt lat="45.2202" lon="-0.56709">
        <ele>8</ele>
      </trkpt>
      <trkpt lat="45.22088" lon="-0.56759">
        <ele>8</ele>
      </trkpt>
      <trkpt lat="45.21969" lon="-0.56896">
        <ele>8.1</ele>
      </trkpt>
      <trkpt lat="45.21879" lon="-0.56898">
        <ele>9.6</ele>
      </trkpt>
      <trkpt lat="45.21868" lon="-0.5691">
        <ele>9.9</ele>
      </trkpt>
      <trkpt lat="45.21861" lon="-0.56926">
        <ele>10</ele>
      </trkpt>
      <trkpt lat="45.21842" lon="-0.56951">
        <ele>10</ele>
      </trkpt>
      <trkpt lat="45.21829" lon="-0.5698">
        <ele>10.2</ele>
      </trkpt>
      <trkpt lat="45.21828" lon="-0.56988">
        <ele>10.2</ele>
      </trkpt>
      <trkpt lat="45.21795" lon="-0.57075">
        <ele>11</ele>
      </trkpt>
      <trkpt lat="45.21797" lon="-0.57136">
        <ele>11</ele>
      </trkpt>
      <trkpt lat="45.21796" lon="-0.5716">
        <ele>10.5</ele>
      </trkpt>
      <trkpt lat="45.21749" lon="-0.57239">
        <ele>11</ele>
      </trkpt>
      <trkpt lat="45.21751" lon="-0.57329">
        <ele>11</ele>
      </trkpt>
      <trkpt lat="45.2176" lon="-0.57387">
        <ele>11</ele>
      </trkpt>
      <trkpt lat="45.21761" lon="-0.57387">
        <ele>11</ele>
      </trkpt>
      <trkpt lat="45.21765" lon="-0.57434">
        <ele>10.2</ele>
      </trkpt>
      <trkpt lat="45.2179" lon="-0.57452">
        <ele>10</ele>
      </trkpt>
      <trkpt lat="45.21782" lon="-0.57513">
        <ele>10</ele>
      </trkpt>
      <trkpt lat="45.21802" lon="-0.57578">
        <ele>10.8</ele>
      </trkpt>
      <trkpt lat="45.21803" lon="-0.57582">
        <ele>11</ele>
      </trkpt>
      <trkpt lat="45.21821" lon="-0.57573">
        <ele>10.3</ele>
      </trkpt>
      <trkpt lat="45.21823" lon="-0.57577">
        <ele>10.3</ele>
      </trkpt>
      <trkpt lat="45.21852" lon="-0.5768">
        <ele>10</ele>
      </trkpt>
      <trkpt lat="45.21863" lon="-0.57746">
        <ele>9</ele>
      </trkpt>
      <trkpt lat="45.21866" lon="-0.57771">
        <ele>9</ele>
      </trkpt>
      <trkpt lat="45.21889" lon="-0.57813">
        <ele>8.7</ele>
      </trkpt>
      <trkpt lat="45.21978" lon="-0.5797">
        <ele>6.8</ele>
      </trkpt>
      <trkpt lat="45.21995" lon="-0.57961">
        <ele>56.54</ele>
        <time>2021-05-24T10:01:00.000Z</time>
      </trkpt>
      <trkpt lat="45.22004" lon="-0.57956">
        <ele>56.83</ele>
        <time>2021-05-24T10:01:07.000Z</time>
      </trkpt>
      <trkpt lat="45.22012" lon="-0.5795">
        <ele>56.59</ele>
        <time>2021-05-24T10:01:13.000Z</time>
      </trkpt>
      <trkpt lat="45.22024" lon="-0.57944">
        <ele>56.57</ele>
        <time>2021-05-24T10:01:41.000Z</time>
      </trkpt>
      <trkpt lat="45.22033" lon="-0.57939">
        <ele>56.48</ele>
        <time>2021-05-24T10:01:44.000Z</time>
      </trkpt>
      <trkpt lat="45.22043" lon="-0.57934">
        <ele>57.84</ele>
        <time>2021-05-24T10:01:47.000Z</time>
      </trkpt>
      <trkpt lat="45.22055" lon="-0.57927">
        <ele>57.87</ele>
        <time>2021-05-24T10:01:50.000Z</time>
      </trkpt>
      <trkpt lat="45.22066" lon="-0.57922">
        <ele>58.2</ele>
        <time>2021-05-24T10:01:53.000Z</time>
      </trkpt>
      <trkpt lat="45.22076" lon="-0.57916">
        <ele>58.05</ele>
        <time>2021-05-24T10:01:56.000Z</time>
      </trkpt>
      <trkpt lat="45.22087" lon="-0.5791">
        <ele>58.39</ele>
        <time>2021-05-24T10:01:59.000Z</time>
      </trkpt>
      <trkpt lat="45.22099" lon="-0.57903">
        <ele>58.23</ele>
        <time>2021-05-24T10:02:02.000Z</time>
      </trkpt>
      <trkpt lat="45.2211" lon="-0.57896">
        <ele>58.66</ele>
        <time>2021-05-24T10:02:05.000Z</time>
      </trkpt>
      <trkpt lat="45.2212" lon="-0.5789">
        <ele>58.5</ele>
        <time>2021-05-24T10:02:08.000Z</time>
      </trkpt>
      <trkpt lat="45.22129" lon="-0.57885">
        <ele>58</ele>
        <time>2021-05-24T10:02:12.000Z</time>
      </trkpt>
      <trkpt lat="45.22138" lon="-0.5788">
        <ele>57.76</ele>
        <time>2021-05-24T10:02:19.000Z</time>
      </trkpt>
      <trkpt lat="45.22148" lon="-0.57875">
        <ele>58.65</ele>
        <time>2021-05-24T10:02:22.000Z</time>
      </trkpt>
      <trkpt lat="45.22157" lon="-0.5787">
        <ele>59.28</ele>
        <time>2021-05-24T10:02:24.000Z</time>
      </trkpt>
      <trkpt lat="45.2217" lon="-0.57863">
        <ele>58.22</ele>
        <time>2021-05-24T10:02:27.000Z</time>
      </trkpt>
      <trkpt lat="45.22179" lon="-0.57858">
        <ele>58.38</ele>
        <time>2021-05-24T10:02:29.000Z</time>
      </trkpt>
      <trkpt lat="45.22188" lon="-0.57854">
        <ele>58.02</ele>
        <time>2021-05-24T10:02:31.000Z</time>
      </trkpt>
      <trkpt lat="45.22179" lon="-0.5786">
        <ele>56.38</ele>
        <time>2021-05-24T10:02:45.000Z</time>
      </trkpt>
      <trkpt lat="45.22188" lon="-0.57854">
        <ele>54.9</ele>
        <time>2021-05-24T10:03:06.000Z</time>
      </trkpt>
      <trkpt lat="45.22197" lon="-0.57848">
        <ele>53.62</ele>
        <time>2021-05-24T10:03:12.000Z</time>
      </trkpt>
      <trkpt lat="45.22208" lon="-0.57842">
        <ele>52.01</ele>
        <time>2021-05-24T10:03:16.000Z</time>
      </trkpt>
      <trkpt lat="45.22217" lon="-0.57837">
        <ele>53.89</ele>
        <time>2021-05-24T10:03:19.000Z</time>
      </trkpt>
      <trkpt lat="45.22229" lon="-0.57833">
        <ele>55.08</ele>
        <time>2021-05-24T10:03:22.000Z</time>
      </trkpt>
      <trkpt lat="45.22238" lon="-0.57828">
        <ele>55.28</ele>
        <time>2021-05-24T10:03:24.000Z</time>
      </trkpt>
      <trkpt lat="45.22251" lon="-0.57823">
        <ele>56.25</ele>
        <time>2021-05-24T10:03:27.000Z</time>
      </trkpt>
      <trkpt lat="45.2226" lon="-0.57816">
        <ele>56.78</ele>
        <time>2021-05-24T10:03:30.000Z</time>
      </trkpt>
      <trkpt lat="45.22268" lon="-0.57811">
        <ele>58.71</ele>
        <time>2021-05-24T10:03:32.000Z</time>
      </trkpt>
      <trkpt lat="45.22278" lon="-0.57804">
        <ele>56.91</ele>
        <time>2021-05-24T10:03:34.000Z</time>
      </trkpt>
      <trkpt lat="45.22289" lon="-0.57797">
        <ele>59.65</ele>
        <time>2021-05-24T10:03:37.000Z</time>
      </trkpt>
      <trkpt lat="45.223" lon="-0.5779">
        <ele>59.45</ele>
        <time>2021-05-24T10:03:41.000Z</time>
      </trkpt>
      <trkpt lat="45.22313" lon="-0.57784">
        <ele>57.86</ele>
        <time>2021-05-24T10:03:44.000Z</time>
      </trkpt>
      <trkpt lat="45.22323" lon="-0.57778">
        <ele>56.11</ele>
        <time>2021-05-24T10:03:48.000Z</time>
      </trkpt>
      <trkpt lat="45.22346" lon="-0.57761">
        <ele>5.5</ele>
      </trkpt>
      <trkpt lat="45.22351" lon="-0.57757">
        <ele>5.6</ele>
      </trkpt>
      <trkpt lat="45.2234" lon="-0.57726">
        <ele>5</ele>
      </trkpt>
      <trkpt lat="45.22334" lon="-0.57697">
        <ele>5</ele>
      </trkpt>
      <trkpt lat="45.22329" lon="-0.57659">
        <ele>6</ele>
      </trkpt>
      <trkpt lat="45.22323" lon="-0.57629">
        <ele>6</ele>
      </trkpt>
      <trkpt lat="45.22323" lon="-0.57627">
        <ele>6</ele>
      </trkpt>
      <trkpt lat="45.2233" lon="-0.57624">
        <ele>6</ele>
      </trkpt>
      <trkpt lat="45.22362" lon="-0.57605">
        <ele>6</ele>
      </trkpt>
      <trkpt lat="45.22363" lon="-0.57577">
        <ele>6</ele>
      </trkpt>
      <trkpt lat="45.22364" lon="-0.57561">
        <ele>6</ele>
      </trkpt>
      <trkpt lat="45.22365" lon="-0.57533">
        <ele>6</ele>
      </trkpt>
      <trkpt lat="45.22376" lon="-0.57474">
        <ele>6</ele>
      </trkpt>
      <trkpt lat="45.22383" lon="-0.57455">
        <ele>6</ele>
      </trkpt>
      <trkpt lat="45.22401" lon="-0.57433">
        <ele>6.2</ele>
      </trkpt>
      <trkpt lat="45.22427" lon="-0.57411">
        <ele>6</ele>
      </trkpt>
      <trkpt lat="45.22433" lon="-0.57407">
        <ele>6</ele>
      </trkpt>
      <trkpt lat="45.22435" lon="-0.57407">
        <ele>6</ele>
      </trkpt>
      <trkpt lat="45.22451" lon="-0.57401">
        <ele>6</ele>
      </trkpt>
      <trkpt lat="45.22481" lon="-0.57392">
        <ele>6</ele>
      </trkpt>
      <trkpt lat="45.22483" lon="-0.57378">
        <ele>6</ele>
      </trkpt>
    </trkseg>
  </trk>
</gpx>